Time;durP1;ratioP1;P1;durP2;ratioP2;P2;SDS_P1;SDS_P2;PMS_P1;PMS_P2;Temp;Humidity;BMP_temperature;BMP_pressure;BME280_temperature;BME280_humidity;BME280_pressure;Samples;Min_cycle;Max_cycle;Signal;HPM_P1;HPM_P2
2022/10/30 05:00:16;;;;;;;1999.90;999.90;;;9.50;99.90;;;;;;6077433;23;21033;-77
2022/10/30 05:02:42;;;;;;;1999.90;999.90;;;9.60;99.90;;;;;;5034959;28;20050;-79
2022/10/30 05:05:07;;;;;;;1999.90;999.90;;;9.70;99.90;;;;;;5038303;28;20030;-80
2022/10/30 05:07:33;;;;;;;1999.90;999.90;;;9.70;99.90;;;;;;5039385;28;20426;-80
2022/10/30 05:09:58;;;;;;;1999.90;999.90;;;9.60;99.90;;;;;;5039094;28;20038;-80
2022/10/30 05:12:24;;;;;;;1999.90;999.90;;;9.50;99.90;;;;;;5020753;28;20038;-80
2022/10/30 05:14:49;;;;;;;1999.90;999.90;;;9.60;99.90;;;;;;5017036;28;20056;-80
2022/10/30 05:17:15;;;;;;;1999.90;999.90;;;9.60;99.90;;;;;;5017741;28;20037;-80
2022/10/30 05:19:41;;;;;;;1999.90;999.90;;;9.60;99.90;;;;;;5016166;28;20035;-80
2022/10/30 05:22:06;;;;;;;1999.90;999.90;;;9.60;99.90;;;;;;5016230;28;20073;-80
2022/10/30 05:24:32;;;;;;;1999.90;999.90;;;9.50;99.90;;;;;;5017636;28;20037;-80
2022/10/30 05:26:57;;;;;;;1999.90;999.90;;;9.50;99.90;;;;;;5017389;28;20476;-80
2022/10/30 05:29:23;;;;;;;1999.90;999.90;;;9.40;99.90;;;;;;5018000;28;20034;-80
2022/10/30 05:31:48;;;;;;;1999.90;999.90;;;9.30;99.90;;;;;;5016947;28;20137;-80
2022/10/30 05:34:14;;;;;;;1999.90;999.90;;;9.30;99.90;;;;;;5017471;28;20460;-80
2022/10/30 05:36:39;;;;;;;1999.90;999.90;;;9.30;99.90;;;;;;5017156;28;20547;-80
2022/10/30 05:39:05;;;;;;;1999.90;999.90;;;9.20;99.90;;;;;;5017700;28;20508;-80
2022/10/30 05:41:30;;;;;;;1999.90;999.90;;;9.20;99.90;;;;;;5017512;28;20058;-80
2022/10/30 05:43:56;;;;;;;1999.90;999.90;;;9.20;99.90;;;;;;5017778;28;20038;-80
2022/10/30 05:46:21;;;;;;;1999.90;999.90;;;9.10;99.90;;;;;;5015515;28;20113;-80
2022/10/30 05:48:47;;;;;;;1999.90;999.90;;;9.00;99.90;;;;;;5017421;28;20057;-80
2022/10/30 05:51:13;;;;;;;1999.90;999.90;;;9.00;99.90;;;;;;5015742;28;20460;-80
2022/10/30 05:53:38;;;;;;;1999.90;999.90;;;8.90;99.90;;;;;;5017145;28;20404;-80
2022/10/30 05:56:04;;;;;;;1999.90;999.90;;;8.90;99.90;;;;;;5015616;28;20427;-80
2022/10/30 05:58:29;;;;;;;1999.90;999.90;;;8.90;99.90;;;;;;5017382;28;20042;-80
2022/10/30 06:00:55;;;;;;;1999.90;999.90;;;8.90;99.90;;;;;;5015161;28;20034;-80
2022/10/30 06:03:20;;;;;;;1999.90;999.90;;;8.90;99.90;;;;;;5016263;28;20030;-80
2022/10/30 06:05:46;;;;;;;1999.90;999.90;;;8.70;99.90;;;;;;5016887;28;20433;-80
2022/10/30 06:08:15;;;;;;;1999.90;999.90;;;8.70;99.90;;;;;;5015370;28;20042;-80
2022/10/30 06:10:40;;;;;;;1999.90;999.90;;;8.80;99.90;;;;;;5016616;28;20054;-80
2022/10/30 06:13:06;;;;;;;1999.90;999.90;;;8.80;99.90;;;;;;5016516;28;20523;-80
2022/10/30 06:15:32;;;;;;;1999.90;999.90;;;8.70;99.90;;;;;;5019805;28;20500;-80
2022/10/30 06:17:58;;;;;;;1999.90;999.90;;;8.70;99.90;;;;;;5025765;28;20042;-80
2022/10/30 06:20:26;;;;;;;1999.90;999.90;;;8.70;99.90;;;;;;5019811;28;20038;-80
2022/10/30 06:22:56;;;;;;;1999.90;999.90;;;8.70;99.90;;;;;;5016186;28;20528;-80
2022/10/30 06:25:22;;;;;;;1999.90;999.90;;;8.70;99.90;;;;;;5015809;28;20036;-80
2022/10/30 06:27:48;;;;;;;1999.90;999.90;;;8.70;99.90;;;;;;5014703;28;20547;-80
2022/10/30 06:30:13;;;;;;;1999.90;999.90;;;8.60;99.90;;;;;;5016074;28;20033;-80
2022/10/30 06:32:39;;;;;;;1999.90;999.90;;;8.60;99.90;;;;;;5014640;28;20488;-80
2022/10/30 06:35:05;;;;;;;1999.90;999.90;;;8.60;99.90;;;;;;5015815;28;20063;-80
2022/10/30 06:37:30;;;;;;;1999.90;999.90;;;8.60;99.90;;;;;;5016151;28;20058;-80
2022/10/30 06:39:56;;;;;;;1999.90;999.90;;;8.70;99.90;;;;;;5015622;28;20026;-80
2022/10/30 06:42:22;;;;;;;1999.90;999.90;;;8.80;99.90;;;;;;5014258;28;20030;-80
2022/10/30 06:44:47;;;;;;;1999.90;999.90;;;8.80;99.90;;;;;;5014054;28;20511;-80
2022/10/30 06:47:14;;;;;;;1999.90;999.90;;;8.90;99.90;;;;;;5014366;28;20093;-80
2022/10/30 06:49:39;;;;;;;1999.90;999.90;;;8.90;99.90;;;;;;5016111;28;20041;-80
2022/10/30 06:52:05;;;;;;;1999.90;999.90;;;9.00;99.90;;;;;;5014536;28;20039;-82
2022/10/30 06:54:30;;;;;;;1999.90;999.90;;;9.00;99.90;;;;;;5015781;28;20030;-79
2022/10/30 06:56:56;;;;;;;1999.90;999.90;;;9.00;99.90;;;;;;5014396;28;20038;-79
2022/10/30 06:59:21;;;;;;;1999.90;999.90;;;9.00;99.90;;;;;;5014415;28;20034;-79
2022/10/30 07:01:47;;;;;;;1999.90;999.90;;;9.10;99.90;;;;;;5014088;28;20061;-79
2022/10/30 07:04:12;;;;;;;1999.90;999.90;;;9.10;99.90;;;;;;5014578;28;20034;-79
2022/10/30 07:06:38;;;;;;;1999.90;999.90;;;9.20;99.90;;;;;;5015938;28;20082;-79
2022/10/30 07:09:03;;;;;;;1999.90;999.90;;;9.20;99.90;;;;;;5014617;28;20040;-79
2022/10/30 07:11:29;;;;;;;1999.90;999.90;;;9.30;99.90;;;;;;5013658;28;20120;-78
2022/10/30 07:13:54;;;;;;;1999.90;999.90;;;9.30;99.90;;;;;;5013577;28;20396;-77
2022/10/30 07:16:20;;;;;;;1999.90;999.90;;;9.40;99.90;;;;;;5014142;28;20511;-79
2022/10/30 07:18:45;;;;;;;1999.90;999.90;;;9.40;99.90;;;;;;5016391;28;20493;-79
2022/10/30 07:21:11;;;;;;;1999.90;999.90;;;9.50;99.90;;;;;;5016284;28;20042;-79
2022/10/30 07:23:36;;;;;;;1999.90;999.90;;;9.60;99.90;;;;;;5014108;28;20033;-79
2022/10/30 07:26:02;;;;;;;1999.90;999.90;;;9.70;99.90;;;;;;5016162;28;20105;-79
2022/10/30 07:28:28;;;;;;;1999.90;999.90;;;9.70;99.90;;;;;;5015860;28;20062;-79
2022/10/30 07:30:53;;;;;;;1999.90;999.90;;;9.90;99.90;;;;;;5014516;28;20097;-79
2022/10/30 07:33:19;;;;;;;1999.90;999.90;;;9.90;99.90;;;;;;5016179;28;20042;-79
2022/10/30 07:35:44;;;;;;;1999.90;999.90;;;10.00;99.90;;;;;;5016254;28;20107;-79
2022/10/30 07:38:11;;;;;;;1999.90;999.90;;;10.20;99.90;;;;;;5014720;28;20038;-80
2022/10/30 07:40:37;;;;;;;1999.90;999.90;;;10.30;99.90;;;;;;5016158;28;20036;-79
2022/10/30 07:43:03;;;;;;;1999.90;999.90;;;10.40;99.90;;;;;;5014872;28;20044;-79
2022/10/30 07:45:29;;;;;;;1999.90;999.90;;;10.50;99.90;;;;;;5014345;28;20476;-79
2022/10/30 07:47:55;;;;;;;1999.90;999.90;;;10.60;99.90;;;;;;5016603;28;20174;-79
2022/10/30 07:50:21;;;;;;;1999.90;999.90;;;10.70;99.90;;;;;;5014975;28;20660;-79
2022/10/30 07:52:47;;;;;;;1999.90;999.90;;;10.80;99.90;;;;;;5014826;28;20425;-79
2022/10/30 07:55:12;;;;;;;1999.90;999.90;;;10.90;99.90;;;;;;5014519;28;20038;-79
2022/10/30 07:57:40;;;;;;;1999.90;999.90;;;11.00;99.90;;;;;;5014630;28;20034;-79
2022/10/30 08:00:08;;;;;;;1999.90;999.90;;;11.20;99.90;;;;;;5016887;28;20440;-79
2022/10/30 08:02:34;;;;;;;1999.90;999.90;;;11.30;99.90;;;;;;5018163;28;20044;-79
2022/10/30 08:05:00;;;;;;;1999.90;999.90;;;11.40;99.90;;;;;;5016004;28;20039;-79
2022/10/30 08:07:34;;;;;;;1999.90;999.90;;;11.50;99.90;;;;;;5017983;28;20061;-79
2022/10/30 08:09:59;;;;;;;1999.90;999.90;;;11.50;99.90;;;;;;5017254;28;20031;-79
2022/10/30 08:12:26;;;;;;;1999.90;999.90;;;11.60;99.90;;;;;;5016425;28;20046;-80
2022/10/30 08:14:52;;;;;;;1999.90;999.90;;;11.60;99.90;;;;;;5016710;28;20089;-80
2022/10/30 08:17:19;;;;;;;1999.90;999.90;;;11.70;99.90;;;;;;5018068;28;20094;-79
2022/10/30 08:19:44;;;;;;;1999.90;999.90;;;11.80;99.90;;;;;;5017175;28;20081;-79
2022/10/30 08:22:10;;;;;;;1999.90;999.90;;;11.80;99.90;;;;;;5017611;28;20117;-80
2022/10/30 08:24:36;;;;;;;1999.90;999.90;;;12.00;99.90;;;;;;5015747;28;20081;-80
2022/10/30 08:27:02;;;;;;;1999.90;999.90;;;12.10;99.90;;;;;;5016978;28;20089;-80
2022/10/30 08:29:28;;;;;;;1999.90;999.90;;;12.20;99.90;;;;;;5017901;28;20030;-79
2022/10/30 08:31:54;;;;;;;1999.90;999.90;;;12.30;99.90;;;;;;5017404;28;20044;-79
2022/10/30 08:34:20;;;;;;;1999.90;999.90;;;12.30;99.90;;;;;;5015785;28;20117;-79
2022/10/30 08:36:50;;;;;;;1999.90;999.90;;;12.40;99.90;;;;;;5021038;28;20484;-79
2022/10/30 08:39:16;;;;;;;1999.90;999.90;;;12.60;99.90;;;;;;5020321;28;20487;-79
2022/10/30 08:41:45;;;;;;;1999.90;999.90;;;12.60;99.90;;;;;;5020812;28;20911;-79
2022/10/30 08:44:11;;;;;;;1999.90;999.90;;;12.70;99.90;;;;;;5019086;28;20042;-79
2022/10/30 08:46:37;;;;;;;1999.90;999.90;;;12.70;99.90;;;;;;5018203;28;20467;-79
2022/10/30 08:49:02;;;;;;;1999.90;999.90;;;12.90;99.90;;;;;;5020240;28;20093;-79
2022/10/30 08:51:32;;;;;;;1999.90;999.90;;;13.00;99.90;;;;;;5020038;28;20068;-79
2022/10/30 08:53:58;;;;;;;1999.90;999.90;;;13.00;99.90;;;;;;5019790;28;20412;-79
2022/10/30 08:56:23;;;;;;;1999.90;999.90;;;13.10;99.90;;;;;;5019921;28;20030;-79
2022/10/30 08:58:50;;;;;;;1999.90;999.90;;;13.20;99.90;;;;;;5018613;28;20034;-79
2022/10/30 09:01:15;;;;;;;1999.90;999.90;;;13.30;99.90;;;;;;5018028;28;20037;-79
2022/10/30 09:03:43;;;;;;;1999.90;999.90;;;13.50;99.90;;;;;;5018853;28;20443;-80
2022/10/30 09:06:09;;;;;;;1999.90;999.90;;;13.60;99.90;;;;;;5018163;28;20026;-80
2022/10/30 09:08:34;;;;;;;1999.90;999.90;;;13.60;99.90;;;;;;5016611;28;20034;-80
2022/10/30 09:11:00;;;;;;;1999.90;999.90;;;13.60;99.90;;;;;;5017914;28;20061;-80
2022/10/30 09:13:26;;;;;;;1999.90;999.90;;;13.70;99.90;;;;;;5017025;28;20038;-80
2022/10/30 09:15:51;;;;;;;1999.90;999.90;;;13.80;99.90;;;;;;5017785;28;20403;-80
2022/10/30 09:18:17;;;;;;;1999.90;999.90;;;13.90;99.90;;;;;;5016496;28;20376;-80
2022/10/30 09:20:43;;;;;;;1999.90;999.90;;;14.00;99.90;;;;;;5016165;28;20038;-80
2022/10/30 09:23:09;;;;;;;1999.90;999.90;;;14.10;99.90;;;;;;5016450;28;20034;-80
2022/10/30 09:25:34;;;;;;;1999.90;999.90;;;14.20;99.90;;;;;;5017619;28;20113;-80
2022/10/30 09:28:00;;;;;;;1999.90;999.90;;;14.30;99.90;;;;;;5018666;28;20475;-80
2022/10/30 09:30:25;;;;;;;1999.90;999.90;;;14.30;99.90;;;;;;5018513;28;20040;-80
2022/10/30 09:32:56;;;;;;;1999.90;999.90;;;14.40;99.90;;;;;;5021608;28;20062;-80
2022/10/30 09:35:22;;;;;;;1999.90;999.90;;;14.50;99.90;;;;;;5023590;28;20030;-80
2022/10/30 09:37:48;;;;;;;1999.90;999.90;;;14.60;99.90;;;;;;5017302;28;20042;-80
2022/10/30 09:40:21;;;;;;;1999.90;999.90;;;14.70;99.90;;;;;;5016090;28;20038;-80
2022/10/30 09:42:48;;;;;;;1999.90;999.90;;;14.80;99.90;;;;;;5016424;28;20039;-80
2022/10/30 09:45:42;;;;;;;1999.90;999.90;;;14.90;99.90;;;;;;5015947;28;20042;-81
2022/10/30 09:48:35;;;;;;;1999.90;999.90;;;15.00;99.90;;;;;;5015815;28;20066;-80
2022/10/30 09:51:25;;;;;;;1999.90;999.90;;;15.10;99.90;;;;;;5015653;28;20038;-80
2022/10/30 09:54:04;;;;;;;1999.90;999.90;;;15.30;99.90;;;;;;5015909;28;20092;-80
2022/10/30 09:56:42;;;;;;;1999.90;999.90;;;15.40;99.90;;;;;;5015914;28;20034;-80
2022/10/30 09:59:16;;;;;;;1999.90;999.90;;;15.60;99.90;;;;;;5017225;28;20038;-81
2022/10/30 10:02:18;;;;;;;1999.90;999.90;;;15.60;99.90;;;;;;5015637;28;20038;-81
2022/10/30 10:04:50;;;;;;;1999.90;999.90;;;15.70;99.90;;;;;;5017470;28;20105;-80
2022/10/30 10:07:21;;;;;;;1999.90;999.90;;;15.90;99.90;;;;;;5017841;28;20053;-80
2022/10/30 10:09:50;;;;;;;1999.90;999.90;;;16.00;99.90;;;;;;5017306;28;20415;-81
2022/10/30 10:12:37;;;;;;;1999.90;999.90;;;16.10;99.90;;;;;;5015791;28;20129;-81
2022/10/30 10:15:15;;;;;;;1999.90;999.90;;;16.10;99.90;;;;;;5017054;28;20408;-80
2022/10/30 10:17:43;;;;;;;1999.90;999.90;;;16.20;99.90;;;;;;5017917;28;20768;-81
2022/10/30 10:20:39;;;;;;;1999.90;999.90;;;16.30;99.90;;;;;;5017503;28;20030;-80
2022/10/30 10:23:30;;;;;;;1999.90;999.90;;;16.40;99.90;;;;;;5017737;28;20104;-80
2022/10/30 10:25:59;;;;;;;1999.90;999.90;;;16.50;99.90;;;;;;5019330;28;20077;-80
2022/10/30 10:28:43;;;;;;;1999.90;999.90;;;16.60;99.90;;;;;;5017923;28;20038;-80
2022/10/30 10:31:17;;;;;;;1999.90;999.90;;;16.70;99.90;;;;;;5018342;28;20482;-80
2022/10/30 10:33:48;;;;;;;1999.90;999.90;;;16.80;99.90;;;;;;5017110;28;20097;-80
2022/10/30 10:36:46;;;;;;;1999.90;999.90;;;16.90;99.90;;;;;;5016672;28;20113;-81
2022/10/30 10:39:40;;;;;;;1999.90;999.90;;;17.00;99.90;;;;;;5015503;28;20038;-80
2022/10/30 10:42:39;;;;;;;1999.90;999.90;;;17.20;99.90;;;;;;5008993;28;20254;-80
2022/10/30 10:45:04;;;;;;;1999.90;999.90;;;17.30;99.90;;;;;;5014877;28;20093;-80
2022/10/30 10:47:58;;;;;;;1999.90;999.90;;;17.50;99.90;;;;;;5017056;28;20107;-80
2022/10/30 10:50:32;;;;;;;1999.90;999.90;;;17.60;99.90;;;;;;5014708;28;20133;-80
2022/10/30 10:53:04;;;;;;;1999.90;999.90;;;17.70;99.90;;;;;;5015038;28;20041;-80
2022/10/30 10:55:36;;;;;;;1999.90;999.90;;;17.80;99.90;;;;;;5016226;28;20121;-80
2022/10/30 10:58:22;;;;;;;1999.90;999.90;;;17.90;99.90;;;;;;5014885;28;20034;-80
2022/10/30 11:00:47;;;;;;;1999.90;999.90;;;18.00;99.90;;;;;;5014361;28;20034;-81
2022/10/30 11:03:40;;;;;;;1999.90;999.90;;;18.10;99.90;;;;;;5017147;28;20030;-80
2022/10/30 11:06:21;;;;;;;1999.90;999.90;;;18.20;99.90;;;;;;5016577;28;20041;-80
2022/10/30 11:08:48;;;;;;;1999.90;999.90;;;18.20;99.90;;;;;;5017015;28;20093;-80
2022/10/30 11:11:14;;;;;;;1999.90;999.90;;;18.40;99.90;;;;;;5014995;28;20042;-81
2022/10/30 11:13:41;;;;;;;1999.90;999.90;;;18.50;99.90;;;;;;5052757;23;20093;-81
2022/10/30 11:16:26;;;;;;;1999.90;999.90;;;18.70;99.90;;;;;;5005795;28;20494;-81
2022/10/30 11:18:59;;;;;;;1999.90;999.90;;;18.80;99.90;;;;;;5009154;28;20131;-81
2022/10/30 11:21:26;;;;;;;1999.90;999.90;;;18.90;99.90;;;;;;5008577;28;20053;-81
2022/10/30 11:23:52;;;;;;;1999.90;999.90;;;18.90;99.90;;;;;;5005028;28;20062;-82
2022/10/30 11:26:19;;;;;;;1999.90;999.90;;;19.10;99.90;;;;;;5003688;28;20053;-82
2022/10/30 11:28:48;;;;;;;1999.90;999.90;;;19.20;99.90;;;;;;5003252;28;20034;-82
2022/10/30 11:31:22;;;;;;;1999.90;999.90;;;19.30;99.90;;;;;;5004515;28;20144;-82
2022/10/30 11:33:49;;;;;;;1999.90;999.90;;;19.50;99.90;;;;;;5002064;28;20038;-81
2022/10/30 11:36:18;;;;;;;1999.90;999.90;;;19.50;99.90;;;;;;5002012;28;20041;-81
2022/10/30 11:38:43;;;;;;;1999.90;999.90;;;19.60;99.90;;;;;;5001942;28;20855;-82
2022/10/30 11:41:10;;;;;;;1999.90;999.90;;;19.80;99.90;;;;;;5000280;28;20057;-81
2022/10/30 11:43:37;;;;;;;1999.90;999.90;;;19.90;99.90;;;;;;4999496;28;20041;-82
2022/10/30 11:46:08;;;;;;;1999.90;999.90;;;20.10;99.90;;;;;;5001243;28;20090;-82
2022/10/30 11:48:37;;;;;;;1999.90;999.90;;;20.20;99.90;;;;;;5000229;28;20034;-81
2022/10/30 11:51:03;;;;;;;1999.90;999.90;;;20.30;99.90;;;;;;5001058;28;20031;-81
2022/10/30 11:53:38;;;;;;;1999.90;999.90;;;20.20;99.90;;;;;;5004998;28;20803;-81
2022/10/30 11:56:20;;;;;;;1999.90;999.90;;;20.20;99.90;;;;;;5005951;28;20123;-82
2022/10/30 11:59:06;;;;;;;1999.90;999.90;;;20.40;99.90;;;;;;5005281;28;20043;-82
2022/10/30 12:01:35;;;;;;;1999.90;999.90;;;20.50;99.90;;;;;;5003493;28;20035;-82
2022/10/30 12:04:22;;;;;;;1999.90;999.90;;;20.80;99.90;;;;;;4998545;28;20037;-82
2022/10/30 12:07:05;;;;;;;1999.90;999.90;;;21.00;99.90;;;;;;5002217;28;20042;-82
2022/10/30 12:09:31;;;;;;;1999.90;999.90;;;21.20;99.90;;;;;;5000316;28;20033;-82
2022/10/30 12:11:56;;;;;;;1999.90;999.90;;;21.30;99.90;;;;;;5007310;28;20033;-82
2022/10/30 12:14:25;;;;;;;1999.90;999.90;;;21.30;99.90;;;;;;5008360;28;20053;-81
2022/10/30 12:16:54;;;;;;;1999.90;999.90;;;21.40;99.90;;;;;;5009978;28;20066;-82
2022/10/30 12:19:22;;;;;;;1999.90;999.90;;;21.50;99.90;;;;;;5011329;28;20043;-81
2022/10/30 12:21:53;;;;;;;1999.90;999.90;;;21.50;99.90;;;;;;5010714;28;20095;-81
2022/10/30 12:24:21;;;;;;;1999.90;999.90;;;21.60;99.90;;;;;;5008538;28;20903;-82
2022/10/30 12:26:50;;;;;;;1999.90;999.90;;;21.70;99.90;;;;;;5011122;28;20043;-82
2022/10/30 12:29:18;;;;;;;1999.90;999.90;;;21.80;99.90;;;;;;5011772;28;20037;-81
2022/10/30 12:32:04;;;;;;;1999.90;999.90;;;22.00;99.90;;;;;;5010248;28;20046;-82
2022/10/30 12:34:37;;;;;;;1999.90;999.90;;;22.20;99.90;;;;;;5011275;28;20034;-81
2022/10/30 12:37:26;;;;;;;1999.90;999.90;;;22.30;99.90;;;;;;5012244;28;20030;-81
2022/10/30 12:40:14;;;;;;;1999.90;999.90;;;22.40;99.90;;;;;;5016557;28;20026;-81
2022/10/30 12:42:49;;;;;;;1999.90;999.90;;;22.50;99.90;;;;;;5017206;28;20027;-81
2022/10/30 12:45:17;;;;;;;1999.90;999.90;;;22.60;99.90;;;;;;5017934;28;20034;-81
2022/10/30 12:48:00;;;;;;;1999.90;999.90;;;22.70;99.90;;;;;;5015832;28;20019;-82
2022/10/30 12:50:37;;;;;;;1999.90;999.90;;;22.80;99.90;;;;;;5016836;28;20035;-81
2022/10/30 12:53:21;;;;;;;1999.90;999.90;;;22.90;99.90;;;;;;5010587;28;20058;-81
2022/10/30 12:55:50;;;;;;;1999.90;999.90;;;22.80;99.90;;;;;;5003908;28;20046;-81
2022/10/30 12:58:46;;;;;;;1999.90;999.90;;;22.60;99.90;;;;;;5006517;28;20062;-81
2022/10/30 13:01:23;;;;;;;1999.90;999.90;;;22.40;99.90;;;;;;5007939;28;20037;-82
2022/10/30 13:04:13;;;;;;;1999.90;999.90;;;22.20;99.90;;;;;;5005027;28;20070;-81
2022/10/30 13:07:11;;;;;;;1999.90;999.90;;;22.20;99.90;;;;;;5005122;28;20030;-81
2022/10/30 13:09:48;;;;;;;1999.90;999.90;;;22.20;99.90;;;;;;5003940;28;20062;-81
2022/10/30 13:12:29;;;;;;;1999.90;999.90;;;22.10;99.90;;;;;;5003086;28;20117;-81
2022/10/30 13:15:04;;;;;;;1999.90;999.90;;;22.00;99.90;;;;;;5003406;28;20051;-82
2022/10/30 13:17:33;;;;;;;1999.90;999.90;;;22.00;99.90;;;;;;5003929;28;20069;-82
2022/10/30 13:20:02;;;;;;;1999.90;999.90;;;21.90;99.90;;;;;;5003271;28;20046;-80
2022/10/30 13:22:48;;;;;;;1999.90;999.90;;;21.80;99.90;;;;;;5003616;28;20038;-83
2022/10/30 13:25:35;;;;;;;1999.90;999.90;;;21.70;99.90;;;;;;5004608;28;20073;-82
2022/10/30 13:28:19;;;;;;;1999.90;999.90;;;21.70;99.90;;;;;;5005408;28;20064;-80
2022/10/30 13:31:04;;;;;;;1999.90;999.90;;;21.70;99.90;;;;;;5005673;28;20070;-82
2022/10/30 13:33:40;;;;;;;1999.90;999.90;;;21.70;99.90;;;;;;5006240;28;20058;-82
2022/10/30 13:36:12;;;;;;;1999.90;999.90;;;21.50;99.90;;;;;;5004132;28;20026;-81
2022/10/30 13:38:51;;;;;;;1999.90;999.90;;;21.60;99.90;;;;;;5005926;28;20038;-81
2022/10/30 13:41:38;;;;;;;1999.90;999.90;;;21.60;99.90;;;;;;5006070;28;20019;-81
2022/10/30 13:44:28;;;;;;;1999.90;999.90;;;21.60;99.90;;;;;;5005298;28;20154;-82
2022/10/30 13:47:12;;;;;;;1999.90;999.90;;;21.60;99.90;;;;;;5004757;28;20041;-81
2022/10/30 13:50:01;;;;;;;1999.90;999.90;;;21.50;99.90;;;;;;5005655;28;20041;-81
2022/10/30 13:52:31;;;;;;;1999.90;999.90;;;21.50;99.90;;;;;;5006735;28;20137;-82
2022/10/30 13:55:02;;;;;;;1999.90;999.90;;;21.50;99.90;;;;;;5005897;28;20034;-81
2022/10/30 13:58:06;;;;;;;1999.90;999.90;;;21.40;99.90;;;;;;5006085;28;20038;-82
2022/10/30 14:00:57;;;;;;;1999.90;999.90;;;21.50;99.90;;;;;;5006251;28;20091;-81
2022/10/30 14:03:41;;;;;;;1999.90;999.90;;;21.50;99.90;;;;;;5007347;28;20160;-82
2022/10/30 14:06:33;;;;;;;1999.90;999.90;;;21.50;99.90;;;;;;5005198;28;20066;-82
2022/10/30 14:09:17;;;;;;;1999.90;999.90;;;21.60;99.90;;;;;;5007140;28;20053;-82
2022/10/30 14:11:42;;;;;;;1999.90;999.90;;;21.60;99.90;;;;;;5006830;28;20038;-81
2022/10/30 14:14:30;;;;;;;1999.90;999.90;;;21.70;99.90;;;;;;5002733;28;20046;-81
2022/10/30 14:17:13;;;;;;;1999.90;999.90;;;21.70;99.90;;;;;;5001144;28;20035;-82
2022/10/30 14:20:11;;;;;;;1999.90;999.90;;;21.80;99.90;;;;;;5003477;28;20055;-82
2022/10/30 14:22:38;;;;;;;1999.90;999.90;;;21.70;99.90;;;;;;5000531;28;20046;-82
2022/10/30 14:25:12;;;;;;;1999.90;999.90;;;21.60;99.90;;;;;;5001035;28;20500;-81
2022/10/30 14:27:38;;;;;;;1999.90;999.90;;;21.60;99.90;;;;;;5001620;28;20114;-81
2022/10/30 14:30:16;;;;;;;1999.90;999.90;;;21.50;99.90;;;;;;5004540;28;20117;-80
2022/10/30 14:32:48;;;;;;;1999.90;999.90;;;21.50;99.90;;;;;;5001823;28;20452;-81
2022/10/30 14:35:35;;;;;;;1999.90;999.90;;;21.30;99.90;;;;;;5002985;28;20035;-81
2022/10/30 14:38:06;;;;;;;1999.90;999.90;;;21.20;99.90;;;;;;5001778;28;20039;-81
2022/10/30 14:40:47;;;;;;;1999.90;999.90;;;21.10;99.90;;;;;;5001478;28;20038;-81
2022/10/30 14:43:34;;;;;;;1999.90;999.90;;;21.10;99.90;;;;;;5003174;28;20571;-81
2022/10/30 14:46:03;;;;;;;1999.90;999.90;;;21.00;99.90;;;;;;5003307;28;20066;-82
2022/10/30 14:48:45;;;;;;;1999.90;999.90;;;20.90;99.90;;;;;;5002093;28;20042;-82
2022/10/30 14:51:42;;;;;;;1999.90;999.90;;;20.80;99.90;;;;;;5002422;28;20057;-83
2022/10/30 14:54:27;;;;;;;1999.90;999.90;;;20.80;99.90;;;;;;5001337;28;20039;-81
2022/10/30 14:56:53;;;;;;;1999.90;999.90;;;20.70;99.90;;;;;;5002603;28;20038;-81
2022/10/30 14:59:20;;;;;;;1999.90;999.90;;;20.60;99.90;;;;;;5005815;28;20045;-84
2022/10/30 15:02:04;;;;;;;1999.90;999.90;;;20.60;99.90;;;;;;5003689;28;20031;-83
2022/10/30 15:04:35;;;;;;;1999.90;999.90;;;20.40;99.90;;;;;;5004228;28;20038;-82
2022/10/30 15:07:03;;;;;;;1999.90;999.90;;;20.30;99.90;;;;;;5001645;28;20058;-81
2022/10/30 15:09:43;;;;;;;1999.90;999.90;;;20.10;99.90;;;;;;5005173;28;20062;-81
2022/10/30 15:12:19;;;;;;;1999.90;999.90;;;20.00;99.90;;;;;;5004276;28;20026;-81
2022/10/30 15:15:15;;;;;;;1999.90;999.90;;;19.90;99.90;;;;;;5003169;28;20102;-81
2022/10/30 15:17:45;;;;;;;1999.90;999.90;;;19.80;99.90;;;;;;4997508;28;20057;-81
2022/10/30 15:20:27;;;;;;;1999.90;999.90;;;19.70;99.90;;;;;;5003057;28;20840;-81
2022/10/30 15:23:02;;;;;;;1999.90;999.90;;;19.50;99.90;;;;;;5004343;28;20114;-81
2022/10/30 15:25:44;;;;;;;1999.90;999.90;;;19.30;99.90;;;;;;5001493;28;20039;-81
2022/10/30 15:28:15;;;;;;;1999.90;999.90;;;19.20;99.90;;;;;;5005779;28;20041;-81
2022/10/30 15:30:59;;;;;;;1999.90;999.90;;;19.00;99.90;;;;;;5002868;28;20085;-82
2022/10/30 15:33:24;;;;;;;1999.90;999.90;;;18.80;99.90;;;;;;5002454;28;20046;-82
2022/10/30 15:35:50;;;;;;;1999.90;999.90;;;18.70;99.90;;;;;;5003503;28;20511;-82
2022/10/30 15:38:15;;;;;;;1999.90;999.90;;;18.40;99.90;;;;;;5002290;28;20038;-82
2022/10/30 15:40:41;;;;;;;1999.90;999.90;;;18.30;99.90;;;;;;5001102;28;20038;-82
2022/10/30 15:43:11;;;;;;;1999.90;999.90;;;18.10;99.90;;;;;;5003698;28;20042;-81
2022/10/30 15:45:45;;;;;;;1999.90;999.90;;;17.90;99.90;;;;;;5002745;28;20492;-81
2022/10/30 15:48:22;;;;;;;1999.90;999.90;;;17.70;99.90;;;;;;5003390;28;20039;-81
2022/10/30 15:51:00;;;;;;;1999.90;999.90;;;17.50;99.90;;;;;;5005676;28;20027;-81
2022/10/30 15:53:33;;;;;;;1999.90;999.90;;;17.20;99.90;;;;;;5005029;28;20084;-82
2022/10/30 15:55:59;;;;;;;1999.90;999.90;;;17.10;99.90;;;;;;5004459;28;20468;-81
2022/10/30 15:58:25;;;;;;;1999.90;999.90;;;16.90;99.90;;;;;;5004476;28;20035;-81
2022/10/30 16:00:59;;;;;;;1999.90;999.90;;;16.80;99.90;;;;;;5003054;28;20098;-81
2022/10/30 16:03:25;;;;;;;1999.90;999.90;;;16.60;99.90;;;;;;5001856;28;20039;-81
2022/10/30 16:06:22;;;;;;;1999.90;999.90;;;16.40;99.90;;;;;;5002933;28;20035;-81
2022/10/30 16:08:47;;;;;;;1999.90;999.90;;;16.30;99.90;;;;;;5003320;28;20586;-81
2022/10/30 16:11:14;;;;;;;1999.90;999.90;;;16.10;99.90;;;;;;5002599;28;20043;-82
2022/10/30 16:13:41;;;;;;;1999.90;999.90;;;15.90;99.90;;;;;;5000567;28;20043;-82
2022/10/30 16:16:13;;;;;;;1999.90;999.90;;;15.80;99.90;;;;;;5001560;28;20527;-82
2022/10/30 16:18:39;;;;;;;1999.90;999.90;;;15.80;99.90;;;;;;5001430;28;20540;-80
2022/10/30 16:21:08;;;;;;;1999.90;999.90;;;15.70;99.90;;;;;;5001015;28;20034;-82
2022/10/30 16:23:39;;;;;;;1999.90;999.90;;;15.50;99.90;;;;;;4997713;28;20193;-81
2022/10/30 16:26:04;;;;;;;1999.90;999.90;;;15.50;99.90;;;;;;5000026;28;20035;-82
2022/10/30 16:28:33;;;;;;;1999.90;999.90;;;15.50;99.90;;;;;;4987761;28;20035;-81
2022/10/30 16:31:04;;;;;;;1999.90;999.90;;;15.40;99.90;;;;;;4999174;28;20644;-83
2022/10/30 16:33:32;;;;;;;1999.90;999.90;;;15.40;99.90;;;;;;4989370;28;20046;-82
2022/10/30 16:36:00;;;;;;;1999.90;999.90;;;15.30;99.90;;;;;;5002938;28;20027;-82
2022/10/30 16:38:30;;;;;;;1999.90;999.90;;;15.30;99.90;;;;;;4996084;28;20046;-82
2022/10/30 16:40:56;;;;;;;1999.90;999.90;;;15.20;99.90;;;;;;4996062;28;20094;-81
2022/10/30 16:43:31;;;;;;;1999.90;999.90;;;15.20;99.90;;;;;;4990266;28;20572;-81
2022/10/30 16:46:14;;;;;;;1999.90;999.90;;;15.10;99.90;;;;;;4995290;28;20039;-80
2022/10/30 16:49:10;;;;;;;1999.90;999.90;;;14.90;99.90;;;;;;4990055;28;20126;-81
2022/10/30 16:51:38;;;;;;;1999.90;999.90;;;14.90;99.90;;;;;;4995239;28;20047;-80
2022/10/30 16:54:04;;;;;;;1999.90;999.90;;;15.00;99.90;;;;;;4995534;28;20038;-80
2022/10/30 16:56:31;;;;;;;1999.90;999.90;;;14.90;99.90;;;;;;4987318;28;20492;-81
2022/10/30 16:59:12;;;;;;;1999.90;999.90;;;14.80;99.90;;;;;;4985121;28;20038;-78
2022/10/30 17:01:38;;;;;;;1999.90;999.90;;;14.80;99.90;;;;;;4976938;28;20043;-78
2022/10/30 17:04:04;;;;;;;1999.90;999.90;;;14.70;99.90;;;;;;4976715;28;20031;-78
2022/10/30 17:06:39;;;;;;;1999.90;999.90;;;14.50;99.90;;;;;;4978653;28;20393;-79
2022/10/30 17:09:08;;;;;;;1999.90;999.90;;;14.40;99.90;;;;;;4978261;28;20045;-79
2022/10/30 17:11:40;;;;;;;1999.90;999.90;;;14.20;99.90;;;;;;4977677;28;20039;-79
2022/10/30 17:14:20;;;;;;;1999.90;999.90;;;14.10;99.90;;;;;;5005356;23;20138;-79
2022/10/30 17:16:54;;;;;;;1999.90;999.90;;;14.00;99.90;;;;;;4995813;28;20042;-79
2022/10/30 17:19:38;;;;;;;1999.90;999.90;;;13.90;99.90;;;;;;4997643;28;20031;-79
2022/10/30 17:22:11;;;;;;;1999.90;999.90;;;13.80;99.90;;;;;;4997806;28;20035;-79
2022/10/30 17:24:37;;;;;;;1999.90;999.90;;;13.80;99.90;;;;;;4995850;28;20767;-79